aviador You're here:

LFYR Decoded Metar

ROMORANTIN/PRUNI in FRANCE
Report Time2018-07-18 20:00:00
UTC Time2018-07-18 20:10:32
Flight Rules unknown UNKNOWN
WindCalm
VisibilityN/A
Phenomena:N/A
Clouds:N/A
Expected CloudBase > 1,600 ft AGL from Temp-Dew spread
CeilingNone
Temp20°C (ISA +6)
Dew Point16°C (78% RH)
QNH1016 hPa
Density Alt1,073 ft
Elevation282 ft
Report Wrong Elevation
Raw Report
METAR LFYR 182000Z AUTO 00000KT //// // NSC 20/16 Q1016=

Extra information for LFYR:More info

Metar Taf Metar & Taf Last 4 Metars F.Rules Stats Wind Profile Meteogram Temp Stats Airport Information Weather charts Add Link Nearby VenuesMetar ALERT Operation Metar Decoded Social comments